Aviation Digital Data Service (ADDS)

Output produced by METARs form (0846 UTC 24 March 2019)
found at http://www.aviationweather.gov/metar/data/
 
METAR text: VAAU 240800Z 18003KT 6000 NSC 36/11 Q1014 NOSIG
Conditions at: VAAU (AURANGABAD AIRPO, IN) observed 0800 UTC 24 March 2019
Temperature: 36.0°C (97°F)
Dewpoint: 11.0°C (52°F) [RH = 22%]
Pressure (altimeter): 29.94 inches Hg (1014.0 mb)
Winds: from the S (180 degrees) at 3 MPH (3 knots; 1.5 m/s)
Visibility: 4 miles ( 6 km)
Ceiling: at least 12,000 feet AGL
Clouds: sky clear below 12,000 feet AGL
Weather: no significant weather observed at this time

METAR text: VAAU 240600Z 07006KT 6000 NSC 35/11 Q1016 NOSIG
Conditions at: VAAU (AURANGABAD AIRPO, IN) observed 0600 UTC 24 March 2019
Temperature: 35.0°C (95°F)
Dewpoint: 11.0°C (52°F) [RH = 23%]
Pressure (altimeter): 30.00 inches Hg (1016.0 mb)
Winds: from the ENE (70 degrees) at 7 MPH (6 knots; 3.1 m/s)
Visibility: 4 miles ( 6 km)
Ceiling: at least 12,000 feet AGL
Clouds: sky clear below 12,000 feet AGL
Weather: no significant weather observed at this time

METAR text: VAAU 240400Z 08008KT 6000 NSC 32/09 Q1016 NOSIG
Conditions at: VAAU (AURANGABAD AIRPO, IN) observed 0400 UTC 24 March 2019
Temperature: 32.0°C (90°F)
Dewpoint: 9.0°C (48°F) [RH = 24%]
Pressure (altimeter): 30.00 inches Hg (1016.0 mb)
Winds: from the E (80 degrees) at 9 MPH (8 knots; 4.1 m/s)
Visibility: 4 miles ( 6 km)
Ceiling: at least 12,000 feet AGL
Clouds: sky clear below 12,000 feet AGL
Weather: no significant weather observed at this time

METAR text: VAAU 240300Z 09006KT 4000 HZ NSC 28/08 Q1012 NOSIG
Conditions at: VAAU (AURANGABAD AIRPO, IN) observed 0300 UTC 24 March 2019
Temperature: 28.0°C (82°F)
Dewpoint: 8.0°C (46°F) [RH = 28%]
Pressure (altimeter): 29.88 inches Hg (1012.0 mb)
Winds: from the E (90 degrees) at 7 MPH (6 knots; 3.1 m/s)
Visibility: 2.49 miles (4.01 km)
Ceiling: at least 12,000 feet AGL
Clouds: sky clear below 12,000 feet AGL
Weather: HZ  (haze)

METAR text: VAAU 240200Z 00000 4000 HZ NSC 25/10 Q1015 NOSIG
Conditions at: VAAU (AURANGABAD AIRPO, IN) observed 0200 UTC 24 March 2019
Temperature: 25.0°C (77°F)
Dewpoint: 10.0°C (50°F) [RH = 39%]
Pressure (altimeter): 29.97 inches Hg (1015.0 mb)
Winds: calm
Visibility: 2.49 miles (4.01 km)
Ceiling: at least 12,000 feet AGL
Clouds: sky clear below 12,000 feet AGL
Weather: HZ  (haze)

METAR text: VAAU 240100Z 00000 4000 HZ NSC 23/08 Q1015 NOSIG
Conditions at: VAAU (AURANGABAD AIRPO, IN) observed 0100 UTC 24 March 2019
Temperature: 23.0°C (73°F)
Dewpoint: 8.0°C (46°F) [RH = 38%]
Pressure (altimeter): 29.97 inches Hg (1015.0 mb)
Winds: calm
Visibility: 2.49 miles (4.01 km)
Ceiling: at least 12,000 feet AGL
Clouds: sky clear below 12,000 feet AGL
Weather: HZ  (haze)

METAR text: VAAU 240000Z 00000 4000 HZ NSC 23/08 Q01012 NOSIG
Conditions at: VAAU (AURANGABAD AIRPO, IN) observed 0000 UTC 24 March 2019
Temperature: 23.0°C (73°F)
Dewpoint: 8.0°C (46°F) [RH = 38%]
Pressure (altimeter): missing
Winds: calm
Visibility: 2.49 miles (4.01 km)
Ceiling: at least 12,000 feet AGL
Clouds: sky clear below 12,000 feet AGL
Weather: HZ  (haze)

METAR text: VAAU 231800Z 32002KT 6000 NSC 28/09 Q1014 NOSIG
Conditions at: VAAU (AURANGABAD AIRPO, IN) observed 1800 UTC 23 March 2019
Temperature: 28.0°C (82°F)
Dewpoint: 9.0°C (48°F) [RH = 30%]
Pressure (altimeter): 29.94 inches Hg (1014.0 mb)
Winds: from the NW (320 degrees) at 2 MPH (2 knots; 1.0 m/s)
Visibility: 4 miles ( 6 km)
Ceiling: at least 12,000 feet AGL
Clouds: sky clear below 12,000 feet AGL
Weather: no significant weather observed at this time

METAR text: VAAU 231500Z 34002KT 6000 NSC 30/12 Q1014 NOSIG
Conditions at: VAAU (AURANGABAD AIRPO, IN) observed 1500 UTC 23 March 2019
Temperature: 30.0°C (86°F)
Dewpoint: 12.0°C (54°F) [RH = 33%]
Pressure (altimeter): 29.94 inches Hg (1014.0 mb)
Winds: from the NNW (340 degrees) at 2 MPH (2 knots; 1.0 m/s)
Visibility: 4 miles ( 6 km)
Ceiling: at least 12,000 feet AGL
Clouds: sky clear below 12,000 feet AGL
Weather: no significant weather observed at this time

METAR text: VAAU 231400Z 32002KT 6000 NSC 32/12 Q1013 NOSIG
Conditions at: VAAU (AURANGABAD AIRPO, IN) observed 1400 UTC 23 March 2019
Temperature: 32.0°C (90°F)
Dewpoint: 12.0°C (54°F) [RH = 30%]
Pressure (altimeter): 29.91 inches Hg (1013.0 mb)
Winds: from the NW (320 degrees) at 2 MPH (2 knots; 1.0 m/s)
Visibility: 4 miles ( 6 km)
Ceiling: at least 12,000 feet AGL
Clouds: sky clear below 12,000 feet AGL
Weather: no significant weather observed at this time

METAR text: VAAU 231300Z 21003KT 6000 NSC 34/11 Q1012 NOSIG
Conditions at: VAAU (AURANGABAD AIRPO, IN) observed 1300 UTC 23 March 2019
Temperature: 34.0°C (93°F)
Dewpoint: 11.0°C (52°F) [RH = 25%]
Pressure (altimeter): 29.88 inches Hg (1012.0 mb)
Winds: from the SSW (210 degrees) at 3 MPH (3 knots; 1.5 m/s)
Visibility: 4 miles ( 6 km)
Ceiling: at least 12,000 feet AGL
Clouds: sky clear below 12,000 feet AGL
Weather: no significant weather observed at this time

METAR text: VAAU 231200Z 20006KT 6000 NSC 36/11 Q1012 NOSIG
Conditions at: VAAU (AURANGABAD AIRPO, IN) observed 1200 UTC 23 March 2019
Temperature: 36.0°C (97°F)
Dewpoint: 11.0°C (52°F) [RH = 22%]
Pressure (altimeter): 29.88 inches Hg (1012.0 mb)
Winds: from the SSW (200 degrees) at 7 MPH (6 knots; 3.1 m/s)
Visibility: 4 miles ( 6 km)
Ceiling: at least 12,000 feet AGL
Clouds: sky clear below 12,000 feet AGL
Weather: no significant weather observed at this time

METAR text: VAAU 231100Z 16003KT 6000 NSC 37/11 Q1012 NOSIG
Conditions at: VAAU (AURANGABAD AIRPO, IN) observed 1100 UTC 23 March 2019
Temperature: 37.0°C (99°F)
Dewpoint: 11.0°C (52°F) [RH = 21%]
Pressure (altimeter): 29.88 inches Hg (1012.0 mb)
Winds: from the SSE (160 degrees) at 3 MPH (3 knots; 1.5 m/s)
Visibility: 4 miles ( 6 km)
Ceiling: at least 12,000 feet AGL
Clouds: sky clear below 12,000 feet AGL
Weather: no significant weather observed at this time

METAR text: VAAU 231000Z 23006KT 6000 NSC 37/12 Q1012 NOSIG
Conditions at: VAAU (AURANGABAD AIRPO, IN) observed 1000 UTC 23 March 2019
Temperature: 37.0°C (99°F)
Dewpoint: 12.0°C (54°F) [RH = 22%]
Pressure (altimeter): 29.88 inches Hg (1012.0 mb)
Winds: from the SW (230 degrees) at 7 MPH (6 knots; 3.1 m/s)
Visibility: 4 miles ( 6 km)
Ceiling: at least 12,000 feet AGL
Clouds: sky clear below 12,000 feet AGL
Weather: no significant weather observed at this time

METAR text: VAAU 230900Z 25005KT 6000 NSC 37/12 Q1013 NOSIG
Conditions at: VAAU (AURANGABAD AIRPO, IN) observed 0900 UTC 23 March 2019
Temperature: 37.0°C (99°F)
Dewpoint: 12.0°C (54°F) [RH = 22%]
Pressure (altimeter): 29.91 inches Hg (1013.0 mb)
Winds: from the WSW (250 degrees) at 6 MPH (5 knots; 2.6 m/s)
Visibility: 4 miles ( 6 km)
Ceiling: at least 12,000 feet AGL
Clouds: sky clear below 12,000 feet AGL
Weather: no significant weather observed at this time

METAR text: VAAU 230700Z 15002KT 6000 NSC 34/10 Q1015 NOSIG
Conditions at: VAAU (AURANGABAD AIRPO, IN) observed 0700 UTC 23 March 2019
Temperature: 34.0°C (93°F)
Dewpoint: 10.0°C (50°F) [RH = 23%]
Pressure (altimeter): 29.97 inches Hg (1015.0 mb)
Winds: from the SSE (150 degrees) at 2 MPH (2 knots; 1.0 m/s)
Visibility: 4 miles ( 6 km)
Ceiling: at least 12,000 feet AGL
Clouds: sky clear below 12,000 feet AGL
Weather: no significant weather observed at this time

METAR text: VAAU 230600Z 07005KT 6000 NSC 34/10 Q1016 NOSIG
Conditions at: VAAU (AURANGABAD AIRPO, IN) observed 0600 UTC 23 March 2019
Temperature: 34.0°C (93°F)
Dewpoint: 10.0°C (50°F) [RH = 23%]
Pressure (altimeter): 30.00 inches Hg (1016.0 mb)
Winds: from the ENE (70 degrees) at 6 MPH (5 knots; 2.6 m/s)
Visibility: 4 miles ( 6 km)
Ceiling: at least 12,000 feet AGL
Clouds: sky clear below 12,000 feet AGL
Weather: no significant weather observed at this time

METAR text: VAAU 230500Z 06007KT 6000 NSC 33/10 Q 1017 NOSIG
Conditions at: VAAU (AURANGABAD AIRPO, IN) observed 0500 UTC 23 March 2019
Temperature: 33.0°C (91°F)
Dewpoint: 10.0°C (50°F) [RH = 24%]
Pressure (altimeter): missing
Winds: from the ENE (60 degrees) at 8 MPH (7 knots; 3.6 m/s)
Visibility: 4 miles ( 6 km)
Ceiling: at least 12,000 feet AGL
Clouds: sky clear below 12,000 feet AGL
Weather: no significant weather observed at this time

METAR text: VAAU 230400Z 07004KT 6000 NSC 31/09 Q 1017 NOSIG
Conditions at: VAAU (AURANGABAD AIRPO, IN) observed 0400 UTC 23 March 2019
Temperature: 31.0°C (88°F)
Dewpoint: 9.0°C (48°F) [RH = 26%]
Pressure (altimeter): missing
Winds: from the ENE (70 degrees) at 5 MPH (4 knots; 2.1 m/s)
Visibility: 4 miles ( 6 km)
Ceiling: at least 12,000 feet AGL
Clouds: sky clear below 12,000 feet AGL
Weather: no significant weather observed at this time

METAR text: VAAU 230300Z 00000KT 4000 HZ NSC 26/10 Q1016 NOSIG
Conditions at: VAAU (AURANGABAD AIRPO, IN) observed 0300 UTC 23 March 2019
Temperature: 26.0°C (79°F)
Dewpoint: 10.0°C (50°F) [RH = 37%]
Pressure (altimeter): 30.00 inches Hg (1016.0 mb)
Winds: calm
Visibility: 2.49 miles (4.01 km)
Ceiling: at least 12,000 feet AGL
Clouds: sky clear below 12,000 feet AGL
Weather: HZ  (haze)

METAR text: VAAU 230000Z 00000KT 6000 NSC 23/08 Q1014 NOSIG
Conditions at: VAAU (AURANGABAD AIRPO, IN) observed 0000 UTC 23 March 2019
Temperature: 23.0°C (73°F)
Dewpoint: 8.0°C (46°F) [RH = 38%]
Pressure (altimeter): 29.94 inches Hg (1014.0 mb)
Winds: calm
Visibility: 4 miles ( 6 km)
Ceiling: at least 12,000 feet AGL
Clouds: sky clear below 12,000 feet AGL
Weather: no significant weather observed at this time

METAR text: VAAU 222100Z 00000KT 6000 NSC 24/10 Q1014 NOSIG
Conditions at: VAAU (AURANGABAD AIRPO, IN) observed 2100 UTC 22 March 2019
Temperature: 24.0°C (75°F)
Dewpoint: 10.0°C (50°F) [RH = 41%]
Pressure (altimeter): 29.94 inches Hg (1014.0 mb)
Winds: calm
Visibility: 4 miles ( 6 km)
Ceiling: at least 12,000 feet AGL
Clouds: sky clear below 12,000 feet AGL
Weather: no significant weather observed at this time

Forecast for: VAAU (AURANGABAD AIRPO, IN)
Text: TAF VAAU 240800Z 2409/2418 10005KT 6000 NSC
Forecast period: 0900 to 1000 UTC 24 March 2019
Forecast type: FROM: standard forecast or significant change
Winds: from the E (100 degrees) at 6 MPH (5 knots; 2.6 m/s)
Visibility: 4 miles (6 km)
Ceiling: unknown
Clouds: missing
Weather: no significant weather forecast for this period
Text: BECMG 2410/2412 25005KT 5000 HZ
Forecast period: 1000 to 1500 UTC 24 March 2019
Forecast type: BECOMING: Conditions expected to become as follows by 1200 UTC 24 March 2019
Winds: from the WSW (250 degrees) at 6 MPH (5 knots; 2.6 m/s)
Visibility: 3 miles (5 km)
Ceiling: unknown
Clouds: missing
Weather: HZ  (haze)
Text: BECMG 2415/2417 34004KT 4000 HZ
Forecast period: 1500 to 1800 UTC 24 March 2019
Forecast type: BECOMING: Conditions expected to become as follows by 1700 UTC 24 March 2019
Winds: from the NNW (340 degrees) at 5 MPH (4 knots; 2.1 m/s)
Visibility: 2.49 miles (4.01 km)
Ceiling: unknown
Clouds: missing
Weather: HZ  (haze)